Pagrindinis puslapis
METAR-TAF:

METAR-TAF

Oro uostai :

Meadow Lake, Saskačevanas, Kanada

platuma: 54-08N, ilguma: 108-31W, Aukštis: 480 m

Dabartinis oras

Ataskaita buvo paskelbta 45 minutes, ne 14:00 UTC
Vėjas 3 kt iš Šiaurės Vakarų
Temperatūra -34°C
Drėgmė 67%
Slėgis 1028 hPa
Matomumas: 24.1 km
Išsisklaidę debesys ne aukštis 30000 ft

METAR: CYLJ 191400Z 32003KT 15SM SCT300 M34/M38 A3037 RMK CI4 SLP355

Laikas: 08:45 (14:45 UTC)


TAF: trūkstamas

Orai ataskaitas ir orų prognozės (METAR, TAF).

turimą stotys yra geltonos ir raudonos taškus žemėlapyje.

Perkelti pele per norėdami pamatyti stoties vardą.

Tada spustelėkite, norėdami matyti oro stebėjimo ir prognozės.

Norėdami pakeisti žemėlapį: spustelėkite ant žalios mygtukų su juodo kryžiaus žemyn,; žalią mygtuką su brūkšneliu, jei norite nutolinti; arba žalių rodyklių gretimoms žemėlapius.


METAR-TAF: